Observations for LAWRENCE MUNICIPAL, MA (LWM)

KLWM 220454Z AUTO 20005KT 10SM CLR 23/18 A3006 RMK AO2 SLP179 T02280178 403110172   
KLWM 220354Z AUTO 20005KT 10SM CLR 23/18 A3007 RMK AO2 SLP182 T02330178 
KLWM 220254Z AUTO 20005KT 10SM CLR 24/18 A3007 RMK AO2 SLP183 T02390178 58001   
KLWM 220154Z 22006KT 10SM CLR 25/18 A3008 RMK AO2 SLP185 T02500178  
KLWM 220054Z 19005KT 10SM CLR 26/18 A3008 RMK AO2 SLP186 T02560183  
KLWM 212354Z 16003KT 10SM CLR 27/18 A3008 RMK AO2 SLP183 T02720178 10311 20272 56004
KLWM 212254Z 22008KT 10SM CLR 29/17 A3008 RMK AO2 SLP183 T02890172  
KLWM 212154Z 25010KT 10SM CLR 30/17 A3008 RMK AO2 SLP183 T03000167  
KLWM 212054Z 23009KT 10SM CLR 31/16 A3009 RMK AO2 SLP187 T03060161 56011
KLWM 211954Z 23009KT 10SM CLR 31/16 A3009 RMK AO2 SLP188 T03060156  
KLWM 211854Z 26006KT 10SM CLR 29/16 A3010 RMK AO2 SLP191 T02940161  
KLWM 211754Z 26007KT 230V290 10SM CLR 30/16 A3012 RMK AO2 SLP198 T03000161 10306 20206 58013
KLWM 211654Z 23010KT 10SM CLR 30/15 A3013 RMK AO2 SLP203 T03000150  
KLWM 211554Z 24008KT 10SM CLR 29/16 A3015 RMK AO2 SLP208 T02890161  
KLWM 211454Z 23005KT 10SM CLR 27/17 A3016 RMK AO2 SLP211 T02720167 55009
KLWM 211354Z 00000KT 10SM CLR 25/17 A3016 RMK AO2 SLP211 T02500167  
KLWM 211254Z 23004KT 10SM CLR 23/16 A3017 RMK AO2 SLP217 T02330161  
KLWM 211154Z AUTO 21003KT 10SM CLR 20/16 A3019 RMK AO2 SLP221 T02000161 10200 20172 51013   
KLWM 211054Z AUTO 00000KT 10SM CLR 18/16 A3018 RMK AO2 SLP217 T01830156 
KLWM 210954Z AUTO 19003KT 10SM CLR 18/15 A3017 RMK AO2 SLP214 T01780150 
KLWM 210854Z AUTO 20003KT 10SM CLR 18/15 A3015 RMK AO2 SLP208 T01780150 53004   
KLWM 210754Z AUTO 20004KT 10SM CLR 18/15 A3014 RMK AO2 SLP205 T01830150 
KLWM 210654Z AUTO 00000KT 10SM CLR 19/15 A3013 RMK AO2 SLP202 T01940150 
KLWM 210554Z AUTO 21004KT 10SM CLR 19/15 A3014 RMK AO2 SLP204 T01940150 10244 20189 51011   
KLWM 210454Z AUTO 21003KT 10SM CLR 19/15 A3013 RMK AO2 SLP202 T01940150 402940194